Time;durP1;ratioP1;P1;durP2;ratioP2;P2;SDS_P1;SDS_P2;PMS_P1;PMS_P2;Temp;Humidity;BMP_temperature;BMP_pressure;BME280_temperature;BME280_humidity;BME280_pressure;Samples;Min_cycle;Max_cycle;Signal;HPM_P1;HPM_P2
2022/04/18 00:00:24;;;;;;;6.10;3.90;;;5.80;99.90;;;;;;5052958;28;20186;-34
2022/04/18 00:02:50;;;;;;;5.20;3.50;;;5.80;99.90;;;;;;5052821;28;20208;-33
2022/04/18 00:05:16;;;;;;;5.27;3.53;;;5.70;99.90;;;;;;5052524;28;20182;-35
2022/04/18 00:07:42;;;;;;;5.57;3.50;;;5.60;99.90;;;;;;5052388;28;20313;-34
2022/04/18 00:10:08;;;;;;;4.27;3.40;;;5.60;99.90;;;;;;5032157;28;20191;-33
2022/04/18 00:12:34;;;;;;;5.17;3.60;;;5.40;99.90;;;;;;5039410;28;20193;-34
2022/04/18 00:15:00;;;;;;;6.43;3.67;;;5.30;99.90;;;;;;5052816;28;20209;-36
2022/04/18 00:17:27;;;;;;;3.87;3.10;;;5.30;99.90;;;;;;5052485;28;20194;-33
2022/04/18 00:19:54;;;;;;;4.50;3.67;;;5.30;99.90;;;;;;5035550;28;20189;-36
2022/04/18 00:22:20;;;;;;;5.90;3.87;;;5.20;99.90;;;;;;5052233;28;20174;-34
2022/04/18 00:24:45;;;;;;;5.43;4.13;;;5.20;99.90;;;;;;5035674;28;20261;-34
2022/04/18 00:27:11;;;;;;;5.43;4.40;;;5.20;99.90;;;;;;5053360;28;20198;-34
2022/04/18 00:29:37;;;;;;;5.23;4.27;;;5.10;99.90;;;;;;5035548;28;20187;-36
2022/04/18 00:32:04;;;;;;;5.93;4.30;;;5.10;99.90;;;;;;5051954;28;20189;-34
2022/04/18 00:34:32;;;;;;;6.30;4.47;;;5.20;99.90;;;;;;5051612;28;20183;-35
2022/04/18 00:36:57;;;;;;;4.67;3.50;;;5.10;99.90;;;;;;5051018;28;20218;-35
2022/04/18 00:39:23;;;;;;;4.93;3.90;;;5.00;99.90;;;;;;5035593;28;20177;-35
2022/04/18 00:41:49;;;;;;;4.73;3.77;;;4.80;99.90;;;;;;5035115;28;20174;-34
2022/04/18 00:44:15;;;;;;;5.23;4.10;;;4.70;99.90;;;;;;5032828;28;20182;-36
2022/04/18 00:46:41;;;;;;;6.47;4.10;;;4.50;99.90;;;;;;5015868;28;20256;-34
2022/04/18 00:49:07;;;;;;;5.33;3.67;;;4.40;99.90;;;;;;5031728;28;20678;-34
2022/04/18 00:51:34;;;;;;;5.43;3.70;;;4.40;99.90;;;;;;5031949;28;20607;-34
2022/04/18 00:54:00;;;;;;;4.27;3.63;;;4.50;99.90;;;;;;5031970;28;20182;-34
2022/04/18 00:56:26;;;;;;;4.37;3.40;;;4.60;99.90;;;;;;5032288;28;20198;-34
2022/04/18 00:58:52;;;;;;;4.83;3.53;;;4.70;99.90;;;;;;5039707;28;20189;-34
2022/04/18 01:01:19;;;;;;;6.87;4.30;;;4.70;99.90;;;;;;5035146;28;20173;-35
2022/04/18 01:03:48;;;;;;;4.90;3.63;;;4.70;99.90;;;;;;5035226;28;20258;-34
2022/04/18 01:06:15;;;;;;;4.53;3.80;;;4.70;99.90;;;;;;5034918;28;20205;-34
2022/04/18 01:08:43;;;;;;;5.70;3.57;;;4.80;99.90;;;;;;5051741;28;20261;-34
2022/04/18 01:11:10;;;;;;;6.40;3.67;;;4.80;99.90;;;;;;5051747;28;20184;-34
2022/04/18 01:13:52;;;;;;;4.63;3.63;;;4.80;99.90;;;;;;5051397;28;20197;-34
2022/04/18 01:16:51;;;;;;;4.93;3.30;;;4.90;99.90;;;;;;5017061;28;20210;-34
2022/04/18 01:19:43;;;;;;;6.17;3.57;;;4.80;99.90;;;;;;5029366;28;20675;-34
2022/04/18 01:22:09;;;;;;;5.63;3.90;;;4.70;99.90;;;;;;5032799;28;20237;-33
2022/04/18 01:30:33;;;;;;;4.07;3.33;;;4.70;99.90;;;;;;5045609;28;20201;-34
2022/04/18 01:32:59;;;;;;;5.17;3.77;;;4.50;99.90;;;;;;5051076;28;20197;-34
2022/04/18 01:35:26;;;;;;;4.67;3.93;;;4.40;99.90;;;;;;5034451;28;20205;-34
2022/04/18 01:37:52;;;;;;;4.80;3.80;;;4.20;99.90;;;;;;5052155;28;20196;-36
2022/04/18 01:40:18;;;;;;;5.30;3.97;;;4.00;99.90;;;;;;5034356;28;20209;-34
2022/04/18 01:42:44;;;;;;;5.10;3.80;;;3.90;99.90;;;;;;5051028;28;20182;-34
2022/04/18 01:45:13;;;;;;;5.00;3.77;;;3.80;99.90;;;;;;5050483;28;20178;-34
2022/04/18 01:47:42;;;;;;;4.90;3.80;;;3.90;99.90;;;;;;5050318;28;20206;-34
2022/04/18 01:50:09;;;;;;;4.33;3.50;;;3.90;99.90;;;;;;5033912;28;20193;-34
2022/04/18 01:52:34;;;;;;;5.37;3.60;;;3.80;99.90;;;;;;5034402;28;20185;-34
2022/04/18 01:55:01;;;;;;;5.93;3.83;;;3.80;99.90;;;;;;5034302;28;20182;-34
2022/04/18 01:57:28;;;;;;;4.60;3.43;;;3.70;99.90;;;;;;5030606;28;20746;-34
2022/04/18 01:59:54;;;;;;;6.23;3.60;;;3.60;99.90;;;;;;5050416;28;20276;-34
2022/04/18 02:02:19;;;;;;;6.87;3.73;;;3.60;99.90;;;;;;5033383;28;20181;-34
2022/04/18 02:04:45;;;;;;;4.93;3.87;;;3.40;99.90;;;;;;5034106;28;20196;-33
2022/04/18 02:07:14;;;;;;;4.60;3.77;;;3.20;99.90;;;;;;5033876;28;20205;-34
2022/04/18 02:09:46;;;;;;;4.97;3.50;;;3.20;99.90;;;;;;5034646;28;20594;-34
2022/04/18 02:12:12;;;;;;;4.10;3.53;;;3.10;99.90;;;;;;5031811;28;20181;-34
2022/04/18 02:14:54;;;;;;;3.97;3.57;;;3.10;99.90;;;;;;5049820;28;20263;-33
2022/04/18 02:17:22;;;;;;;5.40;3.67;;;3.10;99.90;;;;;;5033902;28;20568;-33
2022/04/18 02:19:48;;;;;;;4.90;3.60;;;2.90;99.90;;;;;;5050598;28;20185;-33
2022/04/18 02:22:14;;;;;;;5.00;3.63;;;3.00;99.90;;;;;;5033786;28;20185;-34
2022/04/18 02:24:40;;;;;;;5.30;3.57;;;3.00;99.90;;;;;;5033766;28;20231;-35
2022/04/18 02:27:06;;;;;;;4.90;3.97;;;3.10;99.90;;;;;;5049516;28;20217;-34
2022/04/18 02:29:33;;;;;;;4.97;3.40;;;3.30;99.90;;;;;;5049958;28;20197;-33
2022/04/18 02:34:44;;;;;;;4.13;3.70;;;3.60;99.90;;;;;;5050239;28;20178;-34
2022/04/18 02:37:10;;;;;;;5.00;3.17;;;3.70;99.90;;;;;;5050152;28;20212;-35
2022/04/18 02:39:37;;;;;;;4.27;3.47;;;3.70;99.90;;;;;;5050058;28;20272;-34
2022/04/18 02:42:03;;;;;;;4.50;3.30;;;3.80;99.90;;;;;;5049504;28;20186;-33
2022/04/18 02:44:32;;;;;;;4.47;3.07;;;3.80;99.90;;;;;;5030742;28;20198;-34
2022/04/18 02:46:58;;;;;;;3.57;3.23;;;3.80;99.90;;;;;;5030050;28;20197;-34
2022/04/18 02:49:24;;;;;;;4.97;3.70;;;3.60;99.90;;;;;;5028241;28;20181;-34
2022/04/18 02:51:50;;;;;;;5.20;3.53;;;3.50;99.90;;;;;;5033600;28;20182;-34
2022/04/18 02:54:17;;;;;;;6.70;3.57;;;3.40;99.90;;;;;;5049722;28;20186;-33
2022/04/18 02:56:44;;;;;;;4.33;3.17;;;3.30;99.90;;;;;;5050253;28;20212;-33
2022/04/18 02:59:10;;;;;;;4.93;3.60;;;3.20;99.90;;;;;;5049461;28;20185;-34
2022/04/18 03:01:36;;;;;;;4.73;3.70;;;3.10;99.90;;;;;;5049720;28;20259;-33
2022/04/18 03:04:03;;;;;;;5.07;3.53;;;3.10;99.90;;;;;;5050174;28;20316;-33
2022/04/18 03:06:29;;;;;;;5.20;4.10;;;3.00;99.90;;;;;;5050207;28;20265;-33
2022/04/18 03:08:55;;;;;;;5.33;3.97;;;3.00;99.90;;;;;;5049554;28;20308;-33
2022/04/18 03:11:21;;;;;;;4.23;3.77;;;3.00;99.90;;;;;;5033600;28;20234;-33
2022/04/18 03:13:47;;;;;;;6.20;3.77;;;2.90;99.90;;;;;;5049644;28;20276;-34
2022/04/18 03:16:29;;;;;;;6.43;4.10;;;2.90;99.90;;;;;;5049567;28;20216;-33
2022/04/18 03:18:55;;;;;;;6.27;4.13;;;2.90;99.90;;;;;;5033248;28;20189;-33
2022/04/18 03:21:21;;;;;;;4.30;3.70;;;2.90;99.90;;;;;;5033125;28;20184;-34
2022/04/18 03:23:52;;;;;;;5.03;3.53;;;2.80;99.90;;;;;;5049655;28;20181;-33
2022/04/18 03:26:38;;;;;;;4.90;3.57;;;2.90;99.90;;;;;;5049801;28;20306;-33
2022/04/18 03:29:11;;;;;;;7.83;3.87;;;2.80;99.90;;;;;;5049774;28;20193;-33
2022/04/18 03:31:37;;;;;;;6.53;3.73;;;2.80;99.90;;;;;;5049645;28;20184;-35
2022/04/18 03:34:03;;;;;;;4.00;3.57;;;2.90;99.90;;;;;;5032985;28;20181;-34
2022/04/18 03:41:59;;;;;;;5.13;3.93;;;2.90;99.90;;;;;;5049782;28;20188;-34
2022/04/18 03:44:24;;;;;;;4.37;3.87;;;2.80;99.90;;;;;;5049206;28;20178;-33
2022/04/18 03:46:50;;;;;;;6.70;4.17;;;2.80;99.90;;;;;;5050102;28;20205;-34
2022/04/18 03:49:18;;;;;;;6.10;4.53;;;2.90;99.90;;;;;;5049601;28;20177;-33
2022/04/18 03:51:47;;;;;;;4.97;3.70;;;2.90;99.90;;;;;;5033282;28;20276;-33
2022/04/18 03:54:14;;;;;;;4.83;4.10;;;2.90;99.90;;;;;;5049968;28;20257;-33
2022/04/18 03:56:41;;;;;;;4.80;3.90;;;2.80;99.90;;;;;;5033107;28;20223;-33
2022/04/18 03:59:07;;;;;;;5.60;3.83;;;2.90;99.90;;;;;;5049559;28;20283;-33
2022/04/18 04:01:44;;;;;;;6.23;3.93;;;2.90;99.90;;;;;;5034987;28;20273;-34
2022/04/18 04:04:11;;;;;;;5.23;3.70;;;2.90;99.90;;;;;;5032866;28;20188;-33
2022/04/18 04:06:38;;;;;;;4.33;3.90;;;3.00;99.90;;;;;;5032542;28;20258;-33
2022/04/18 04:09:04;;;;;;;7.10;3.87;;;2.90;99.90;;;;;;5048977;28;20196;-34
2022/04/18 04:11:33;;;;;;;5.27;3.90;;;3.10;99.90;;;;;;5035443;28;20276;-33
2022/04/18 04:14:01;;;;;;;6.00;4.17;;;3.20;99.90;;;;;;5019649;28;20190;-33
2022/04/18 04:16:28;;;;;;;6.43;4.30;;;3.20;99.90;;;;;;5033240;28;20301;-33
2022/04/18 04:18:56;;;;;;;5.57;4.47;;;3.20;99.90;;;;;;5040172;28;20173;-34
2022/04/18 04:21:22;;;;;;;5.47;4.53;;;3.20;99.90;;;;;;5036290;28;20178;-34
2022/04/18 04:23:49;;;;;;;5.17;4.33;;;3.10;99.90;;;;;;5052562;28;20567;-34
2022/04/18 04:26:24;;;;;;;6.37;4.67;;;3.00;99.90;;;;;;5053257;28;20201;-33
2022/04/18 04:28:52;;;;;;;5.13;4.27;;;3.00;99.90;;;;;;5036640;28;20193;-33
2022/04/18 04:31:28;;;;;;;6.87;5.03;;;2.90;99.90;;;;;;5052715;28;20209;-33
2022/04/18 04:33:56;;;;;;;5.20;4.33;;;2.80;99.90;;;;;;5052577;28;20189;-34
2022/04/18 04:36:23;;;;;;;5.67;4.20;;;2.80;99.90;;;;;;5035329;28;20228;-34
2022/04/18 04:38:51;;;;;;;5.90;4.00;;;2.70;99.90;;;;;;5035884;28;20173;-34
2022/04/18 04:41:36;;;;;;;4.90;3.80;;;2.60;99.90;;;;;;5054583;28;20221;-34
2022/04/18 04:44:03;;;;;;;4.60;4.00;;;2.30;99.90;;;;;;5035212;28;20213;-34
2022/04/18 04:47:01;;;;;;;7.53;4.87;;;2.20;99.90;;;;;;5029349;28;20200;-34
2022/04/18 04:49:30;;;;;;;7.57;4.40;;;2.10;99.90;;;;;;5036276;28;20177;-33
2022/04/18 04:52:28;;;;;;;6.57;4.73;;;2.20;99.90;;;;;;5010018;28;20264;-33
2022/04/18 04:54:56;;;;;;;5.33;4.13;;;2.30;99.90;;;;;;5035653;28;20234;-34
2022/04/18 04:57:36;;;;;;;4.90;3.90;;;2.40;99.90;;;;;;5037764;28;20220;-33
2022/04/18 05:00:42;;;;;;;5.67;3.87;;;2.50;99.90;;;;;;5034751;28;20193;-34
2022/04/18 05:03:14;;;;;;;4.43;3.83;;;2.50;99.90;;;;;;5052009;28;20184;-34
2022/04/18 05:05:41;;;;;;;4.77;3.90;;;2.50;99.90;;;;;;5034615;28;20192;-34
2022/04/18 05:08:19;;;;;;;5.33;4.20;;;2.60;99.90;;;;;;5051806;28;20262;-33
2022/04/18 05:10:45;;;;;;;5.53;4.30;;;2.70;99.90;;;;;;5035261;28;20218;-33
2022/04/18 05:13:19;;;;;;;5.07;4.40;;;2.80;99.90;;;;;;5024931;28;20193;-34
2022/04/18 05:15:47;;;;;;;6.30;3.90;;;2.90;99.90;;;;;;5041745;28;20219;-34
2022/04/18 05:18:32;;;;;;;5.17;3.80;;;3.00;99.90;;;;;;5052464;28;20193;-33
2022/04/18 05:20:58;;;;;;;6.07;4.30;;;3.10;99.90;;;;;;5035341;28;20184;-37
2022/04/18 05:23:24;;;;;;;6.07;3.87;;;3.20;99.90;;;;;;5050912;28;20177;-33
2022/04/18 05:25:53;;;;;;;15.03;7.20;;;3.30;99.90;;;;;;5032668;28;20181;-36
2022/04/18 05:28:20;;;;;;;6.87;4.80;;;3.40;99.90;;;;;;5050660;28;20181;-34
2022/04/18 05:30:54;;;;;;;9.30;5.93;;;3.40;99.90;;;;;;5034759;28;20224;-33
2022/04/18 05:33:21;;;;;;;7.10;5.00;;;3.40;99.90;;;;;;5051379;28;20276;-34
2022/04/18 05:36:05;;;;;;;6.23;4.67;;;3.40;99.90;;;;;;5051698;28;20285;-34
2022/04/18 05:38:34;;;;;;;5.23;4.47;;;3.50;99.90;;;;;;5035432;28;20223;-39
2022/04/18 05:41:07;;;;;;;5.50;4.10;;;3.50;99.90;;;;;;5034642;28;20193;-34
2022/04/18 05:43:35;;;;;;;6.40;4.00;;;3.60;99.90;;;;;;5050516;28;20185;-34
2022/04/18 05:46:03;;;;;;;6.70;4.03;;;3.70;99.90;;;;;;5049403;28;20197;-34
2022/04/18 05:48:30;;;;;;;79.87;30.63;;;3.80;99.90;;;;;;5049375;28;20178;-35
2022/04/18 05:50:57;;;;;;;69.27;30.57;;;3.90;99.90;;;;;;5033045;28;20181;-34
2022/04/18 05:53:27;;;;;;;24.17;11.27;;;4.10;99.90;;;;;;5032220;28;20182;-34
2022/04/18 05:56:15;;;;;;;12.77;6.77;;;4.30;99.90;;;;;;5050118;28;20205;-35
2022/04/18 05:58:59;;;;;;;9.03;5.27;;;4.50;99.90;;;;;;5034970;28;20178;-36
2022/04/18 06:01:44;;;;;;;6.40;4.27;;;4.70;99.90;;;;;;5036383;28;20232;-34
2022/04/18 06:04:18;;;;;;;5.63;4.13;;;4.80;99.90;;;;;;5034981;28;20542;-34
2022/04/18 06:06:51;;;;;;;5.97;4.83;;;5.00;99.90;;;;;;5031072;28;20609;-34
2022/04/18 06:09:18;;;;;;;6.43;4.67;;;5.00;99.90;;;;;;5014811;28;20189;-33
2022/04/18 06:11:44;;;;;;;6.20;4.87;;;5.10;99.90;;;;;;5050205;28;20272;-34
2022/04/18 06:14:19;;;;;;;9.00;4.80;;;5.00;99.90;;;;;;5050805;28;20189;-34
2022/04/18 06:16:48;;;;;;;5.40;4.10;;;5.10;99.90;;;;;;5033945;28;20217;-36
2022/04/18 06:19:17;;;;;;;5.67;4.50;;;5.10;99.90;;;;;;5050353;28;20180;-34
2022/04/18 06:21:43;;;;;;;6.07;4.60;;;5.20;99.90;;;;;;5034942;28;20174;-34
2022/04/18 06:24:10;;;;;;;5.40;4.20;;;5.40;99.90;;;;;;5034096;28;20201;-34
2022/04/18 06:26:43;;;;;;;5.13;4.17;;;5.40;99.90;;;;;;5034496;28;20205;-34
2022/04/18 06:29:10;;;;;;;5.43;4.20;;;5.40;99.90;;;;;;5050170;28;20243;-34
2022/04/18 06:31:42;;;;;;;6.60;5.07;;;5.30;99.90;;;;;;5051139;28;20201;-34
2022/04/18 06:34:09;;;;;;;5.40;4.37;;;5.30;99.90;;;;;;5050077;28;20182;-34
2022/04/18 06:36:38;;;;;;;5.03;4.20;;;5.50;99.90;;;;;;5050331;28;20233;-34
2022/04/18 06:39:22;;;;;;;5.00;4.20;;;5.70;99.90;;;;;;5034559;28;20173;-34
2022/04/18 06:41:56;;;;;;;6.63;4.90;;;5.90;99.90;;;;;;5049668;28;20247;-34
2022/04/18 06:44:24;;;;;;;4.80;4.23;;;6.10;99.90;;;;;;5023059;28;20261;-34
2022/04/18 06:46:52;;;;;;;5.57;4.50;;;6.30;99.90;;;;;;5033408;28;20201;-34
2022/04/18 06:49:38;;;;;;;7.17;4.90;;;6.50;99.90;;;;;;5048245;28;20247;-36
2022/04/18 06:52:40;;;;;;;6.70;4.93;;;6.70;99.90;;;;;;5042176;28;20647;-35
2022/04/18 06:55:26;;;;;;;4.33;3.90;;;7.00;99.90;;;;;;5025411;28;20202;-35
2022/04/18 06:57:52;;;;;;;4.83;3.80;;;7.20;99.90;;;;;;5032869;28;20555;-35
2022/04/18 07:00:18;;;;;;;5.07;3.83;;;7.30;99.90;;;;;;5049504;28;20171;-36
2022/04/18 07:02:47;;;;;;;4.27;3.80;;;7.40;99.90;;;;;;5033670;28;20179;-36
2022/04/18 07:05:13;;;;;;;6.07;4.00;;;7.50;99.90;;;;;;5049909;28;20194;-39
2022/04/18 07:07:39;;;;;;;8.40;4.33;;;7.60;99.90;;;;;;5050687;28;20211;-36
2022/04/18 07:10:05;;;;;;;4.17;3.77;;;7.70;99.90;;;;;;5048245;28;20237;-37
2022/04/18 07:12:33;;;;;;;4.53;3.77;;;7.80;99.90;;;;;;5048771;28;20219;-38
2022/04/18 07:14:59;;;;;;;5.17;3.70;;;7.80;99.90;;;;;;5032815;28;20176;-37
2022/04/18 07:17:26;;;;;;;5.47;3.70;;;7.90;99.90;;;;;;5032196;28;20201;-36
2022/04/18 07:19:54;;;;;;;4.30;3.90;;;7.90;99.90;;;;;;5046635;28;20180;-38
2022/04/18 07:22:23;;;;;;;4.33;3.90;;;8.10;99.90;;;;;;5049435;28;20194;-34
2022/04/18 07:24:58;;;;;;;5.63;4.40;;;8.20;99.90;;;;;;5046702;28;20261;-35
2022/04/18 07:27:24;;;;;;;4.67;3.73;;;8.40;99.90;;;;;;5049049;28;20210;-34
2022/04/18 07:29:57;;;;;;;5.50;4.00;;;8.60;99.90;;;;;;5030854;28;20204;-34
2022/04/18 07:32:23;;;;;;;5.83;4.27;;;8.70;99.90;;;;;;5049889;28;20179;-37
2022/04/18 07:34:53;;;;;;;4.70;3.90;;;9.00;99.90;;;;;;5049616;28;20178;-36
2022/04/18 07:37:29;;;;;;;6.27;4.40;;;9.10;99.90;;;;;;5049028;28;20197;-37
2022/04/18 07:39:55;;;;;;;6.17;4.10;;;9.30;99.90;;;;;;5032548;28;20189;-37
2022/04/18 07:42:21;;;;;;;4.97;4.00;;;9.40;99.90;;;;;;5049317;28;20513;-38
2022/04/18 07:44:46;;;;;;;4.20;3.73;;;9.50;99.90;;;;;;5033933;28;20175;-36
2022/04/18 07:47:12;;;;;;;4.30;3.63;;;9.70;99.90;;;;;;5036245;28;20198;-35
2022/04/18 07:49:38;;;;;;;4.50;3.40;;;9.90;99.90;;;;;;5053392;28;20247;-37
2022/04/18 07:52:05;;;;;;;3.97;3.50;;;10.10;99.90;;;;;;5052436;28;20186;-38
2022/04/18 07:54:35;;;;;;;4.43;3.80;;;10.30;99.90;;;;;;5036429;28;20216;-37
2022/04/18 07:57:02;;;;;;;4.63;3.60;;;10.30;99.90;;;;;;5052366;28;20225;-37
2022/04/18 07:59:38;;;;;;;6.50;3.97;;;10.60;99.90;;;;;;5031177;28;20185;-37
2022/04/18 08:02:08;;;;;;;3.90;3.17;;;10.70;99.90;;;;;;5052730;28;20181;-38
2022/04/18 08:04:54;;;;;;;4.27;3.87;;;10.70;99.90;;;;;;5048233;28;20246;-38
2022/04/18 08:07:30;;;;;;;4.13;3.60;;;10.70;99.90;;;;;;5021280;28;20613;-37
2022/04/18 08:09:57;;;;;;;4.53;3.50;;;11.00;99.90;;;;;;5035045;28;20182;-35
2022/04/18 08:12:24;;;;;;;3.70;3.30;;;11.20;99.90;;;;;;5030794;28;20257;-37
2022/04/18 08:15:10;;;;;;;4.10;3.17;;;11.40;99.90;;;;;;5034168;28;20278;-38
2022/04/18 08:17:36;;;;;;;3.57;3.20;;;11.60;99.90;;;;;;5034890;28;20289;-42
2022/04/18 08:20:03;;;;;;;3.80;3.10;;;11.80;99.60;;;;;;5049223;28;20185;-37
2022/04/18 08:22:30;;;;;;;4.93;3.57;;;12.00;99.00;;;;;;5034698;28;20170;-38
2022/04/18 08:25:22;;;;;;;4.30;3.50;;;12.20;99.10;;;;;;5053666;28;20190;-39
2022/04/18 08:28:11;;;;;;;5.83;4.00;;;12.30;98.30;;;;;;5009639;28;20187;-37
2022/04/18 08:30:38;;;;;;;5.37;3.50;;;12.10;97.00;;;;;;5033151;28;20179;-38
2022/04/18 08:33:19;;;;;;;4.23;3.53;;;12.30;98.40;;;;;;5051082;28;20199;-40
2022/04/18 08:35:46;;;;;;;4.90;3.00;;;12.50;98.50;;;;;;5033842;28;20204;-39
2022/04/18 08:38:13;;;;;;;4.57;3.40;;;12.80;98.30;;;;;;5052193;28;20186;-37
2022/04/18 08:41:04;;;;;;;4.57;3.50;;;12.90;96.10;;;;;;5023032;28;20175;-38
2022/04/18 08:43:31;;;;;;;4.63;3.37;;;13.20;97.30;;;;;;5049611;28;20176;-40
2022/04/18 08:45:59;;;;;;;4.83;3.60;;;13.40;97.50;;;;;;5051237;28;20699;-41
2022/04/18 08:54:00;;;;;;;4.27;3.17;;;13.90;94.80;;;;;;5051128;28;20711;-36
2022/04/18 08:56:26;;;;;;;4.80;3.63;;;14.00;94.70;;;;;;5033721;28;20205;-39
2022/04/18 08:58:53;;;;;;;4.63;3.50;;;14.30;95.00;;;;;;5034376;28;20227;-38
2022/04/18 09:01:19;;;;;;;14.53;7.67;;;14.40;94.80;;;;;;5053805;28;20193;-39
2022/04/18 09:04:10;;;;;;;4.87;3.40;;;14.60;95.00;;;;;;5033402;28;20193;-37
2022/04/18 09:06:43;;;;;;;8.27;5.30;;;14.80;94.60;;;;;;5030758;28;20271;-38
2022/04/18 09:09:14;;;;;;;4.13;3.30;;;14.90;93.70;;;;;;5031506;28;20190;-38
2022/04/18 09:11:45;;;;;;;4.87;3.67;;;14.90;94.40;;;;;;5031172;28;20209;-35
2022/04/18 09:14:18;;;;;;;4.63;3.13;;;14.90;93.20;;;;;;5050662;28;20192;-37
2022/04/18 09:16:50;;;;;;;3.67;2.90;;;15.00;93.60;;;;;;5034926;28;20247;-35
2022/04/18 09:19:36;;;;;;;5.27;3.30;;;15.20;94.20;;;;;;5051159;28;20178;-37
2022/04/18 09:22:05;;;;;;;5.07;3.27;;;15.30;93.20;;;;;;5050874;28;20198;-38
2022/04/18 09:24:46;;;;;;;4.33;3.03;;;15.40;93.00;;;;;;5036005;28;20178;-37
2022/04/18 09:27:23;;;;;;;4.77;2.70;;;15.40;92.70;;;;;;5034986;28;20208;-37
2022/04/18 09:30:04;;;;;;;4.43;3.20;;;15.40;92.00;;;;;;5033930;28;20185;-39
2022/04/18 09:32:31;;;;;;;5.10;3.27;;;15.50;92.10;;;;;;5051081;28;20254;-37
2022/04/18 09:35:17;;;;;;;4.23;3.13;;;15.70;92.60;;;;;;5037719;28;20594;-38
2022/04/18 09:37:53;;;;;;;3.60;3.00;;;15.70;92.40;;;;;;5032120;28;20206;-38
2022/04/18 09:40:38;;;;;;;3.13;2.57;;;15.70;91.70;;;;;;5051030;28;20186;-38
2022/04/18 09:43:06;;;;;;;3.83;3.00;;;15.80;92.70;;;;;;5025992;28;20252;-38
2022/04/18 09:45:32;;;;;;;4.37;3.10;;;16.00;93.80;;;;;;5041449;28;20213;-40
2022/04/18 09:48:01;;;;;;;5.30;3.60;;;16.20;92.80;;;;;;5051614;28;20206;-43
2022/04/18 09:53:21;;;;;;;4.27;3.40;;;16.60;92.80;;;;;;5072447;28;20189;-36
2022/04/18 09:55:50;;;;;;;4.57;3.33;;;16.60;91.10;;;;;;5047694;28;20314;-37
2022/04/18 09:58:17;;;;;;;4.80;3.33;;;16.50;91.10;;;;;;5050660;28;20189;-41
2022/04/18 10:00:43;;;;;;;3.77;3.07;;;16.30;91.00;;;;;;5050001;28;20189;-35
2022/04/18 10:03:09;;;;;;;2.90;2.60;;;16.40;91.60;;;;;;5045631;28;20171;-37
2022/04/18 10:05:36;;;;;;;3.27;2.97;;;16.50;91.00;;;;;;5048609;28;20206;-39
2022/04/18 10:08:24;;;;;;;3.63;3.20;;;16.60;91.50;;;;;;5035383;28;20177;-37
2022/04/18 10:10:50;;;;;;;4.30;3.30;;;16.50;89.90;;;;;;5051562;28;20178;-37
2022/04/18 10:13:16;;;;;;;6.53;3.43;;;16.10;92.00;;;;;;5032227;28;20175;-39
2022/04/18 10:15:42;;;;;;;4.43;3.20;;;16.00;90.60;;;;;;5032651;28;20205;-38
2022/04/18 10:18:10;;;;;;;4.67;3.10;;;15.60;91.00;;;;;;5049627;28;20196;-38
2022/04/18 10:20:36;;;;;;;3.80;2.97;;;15.90;91.50;;;;;;5033148;28;20174;-35
2022/04/18 10:23:23;;;;;;;2.67;2.43;;;16.30;91.40;;;;;;5046267;28;20178;-39
2022/04/18 10:26:07;;;;;;;4.80;3.00;;;16.50;90.80;;;;;;5023711;28;20268;-36
2022/04/18 10:28:39;;;;;;;3.80;3.20;;;16.80;90.00;;;;;;5045639;28;20209;-35
2022/04/18 10:31:13;;;;;;;3.90;2.87;;;17.10;89.40;;;;;;5050135;28;20189;-35
2022/04/18 10:33:40;;;;;;;3.97;2.73;;;17.40;90.00;;;;;;5049840;28;20189;-36
2022/04/18 10:36:09;;;;;;;3.25;2.60;;;17.60;87.90;;;;;;5049725;28;20205;-36
2022/04/18 10:38:37;;;;;;;3.17;2.88;;;17.60;86.40;;;;;;5049728;28;20221;-38
2022/04/18 10:41:16;;;;;;;3.10;2.80;;;17.80;87.30;;;;;;5032499;28;20190;-38
2022/04/18 10:44:10;;;;;;;3.80;3.05;;;18.00;88.30;;;;;;5035260;28;20214;-36
2022/04/18 10:47:03;;;;;;;5.63;3.10;;;18.00;87.70;;;;;;5013756;28;20268;-38
2022/04/18 10:49:33;;;;;;;3.70;3.05;;;18.10;86.10;;;;;;5013002;28;20235;-40
2022/04/18 10:52:09;;;;;;;3.92;3.45;;;18.20;84.60;;;;;;5029870;28;20272;-41
2022/04/18 10:54:35;;;;;;;5.13;3.20;;;17.80;84.20;;;;;;5031368;28;20219;-38
2022/04/18 10:57:05;;;;;;;5.35;3.17;;;17.80;86.50;;;;;;5013398;28;20214;-39
2022/04/18 10:59:32;;;;;;;4.38;3.70;;;17.80;87.00;;;;;;5033690;28;20174;-37
2022/04/18 11:02:01;;;;;;;3.60;3.30;;;17.70;82.20;;;;;;5040096;28;20239;-39
2022/04/18 11:04:39;;;;;;;4.22;2.95;;;17.70;84.80;;;;;;5042849;28;20324;-38
2022/04/18 11:07:07;;;;;;;3.97;3.17;;;17.80;89.90;;;;;;5013331;28;20222;-41
2022/04/18 11:09:37;;;;;;;3.88;3.20;;;18.20;87.20;;;;;;5012939;28;20187;-40
2022/04/18 11:12:08;;;;;;;3.83;3.08;;;18.10;87.50;;;;;;5014129;28;20191;-39
2022/04/18 11:15:01;;;;;;;4.57;3.20;;;18.20;84.50;;;;;;5049813;28;20197;-39
2022/04/18 11:17:31;;;;;;;3.30;3.00;;;18.30;84.10;;;;;;5043346;28;20304;-36
2022/04/18 11:20:17;;;;;;;3.97;3.05;;;18.40;85.40;;;;;;5034327;28;20200;-39
2022/04/18 11:23:03;;;;;;;3.30;3.00;;;18.60;86.30;;;;;;5052615;28;20243;-37
2022/04/18 11:25:49;;;;;;;4.05;3.10;;;18.80;83.10;;;;;;5036705;28;20561;-36
2022/04/18 11:28:16;;;;;;;3.20;2.80;;;18.70;79.30;;;;;;5052199;28;20181;-38
2022/04/18 11:30:42;;;;;;;2.80;2.60;;;18.50;82.60;;;;;;5049952;28;20216;-36
2022/04/18 11:33:08;;;;;;;3.17;2.63;;;18.70;84.80;;;;;;5035520;28;20265;-39
2022/04/18 11:35:34;;;;;;;3.28;2.90;;;18.90;83.40;;;;;;5052167;28;20205;-39
2022/04/18 11:38:10;;;;;;;4.28;2.83;;;18.50;81.90;;;;;;5049359;28;20670;-37
2022/04/18 11:40:40;;;;;;;4.18;2.92;;;18.80;84.20;;;;;;5054481;28;20169;-36
2022/04/18 11:43:17;;;;;;;2.55;2.35;;;19.10;82.00;;;;;;5046038;28;20181;-37
2022/04/18 11:45:43;;;;;;;3.53;2.55;;;19.20;81.70;;;;;;5038129;28;20181;-38
2022/04/18 11:48:14;;;;;;;3.97;2.30;;;19.40;81.40;;;;;;5027538;28;20186;-37
2022/04/18 11:50:43;;;;;;;3.08;2.63;;;19.50;79.80;;;;;;5039596;28;20261;-37
2022/04/18 11:53:12;;;;;;;3.63;2.80;;;19.60;80.90;;;;;;5053234;28;20204;-37
2022/04/18 11:55:46;;;;;;;2.70;2.50;;;19.60;80.60;;;;;;5052918;28;20197;-36
2022/04/18 11:58:19;;;;;;;4.63;2.50;;;19.70;78.80;;;;;;5052886;28;20223;-37
2022/04/18 12:09:12;;;;;;;2.80;2.58;;;19.80;78.00;;;;;;5041719;28;20184;-35
2022/04/18 12:11:38;;;;;;;3.10;2.80;;;20.10;77.70;;;;;;5034683;28;20247;-38
2022/04/18 12:14:04;;;;;;;3.78;2.63;;;20.20;79.00;;;;;;5051204;28;20216;-35
2022/04/18 12:16:40;;;;;;;2.90;2.58;;;20.10;76.60;;;;;;5050984;28;20218;-36
2022/04/18 12:19:11;;;;;;;2.60;2.40;;;20.10;75.70;;;;;;5051680;28;20302;-37
2022/04/18 12:21:37;;;;;;;3.67;2.90;;;20.30;77.00;;;;;;5051105;28;20218;-38
2022/04/18 12:24:03;;;;;;;2.72;2.53;;;20.40;76.30;;;;;;5034086;28;20181;-36
2022/04/18 12:26:35;;;;;;;3.08;2.78;;;20.40;77.70;;;;;;5047888;28;20670;-37
2022/04/18 12:29:13;;;;;;;2.90;2.60;;;20.60;77.30;;;;;;5050759;28;20236;-37
2022/04/18 12:31:40;;;;;;;3.40;2.88;;;20.80;77.20;;;;;;5048828;28;20221;-37
2022/04/18 12:34:06;;;;;;;3.42;2.35;;;20.60;73.10;;;;;;5051388;28;20192;-35
2022/04/18 12:36:36;;;;;;;2.83;2.63;;;20.60;76.70;;;;;;5051804;28;20214;-39
2022/04/18 12:39:04;;;;;;;3.97;2.63;;;20.80;78.00;;;;;;5053027;28;20257;-37
2022/04/18 12:41:39;;;;;;;2.67;2.47;;;21.10;75.60;;;;;;5049019;28;20734;-36
2022/04/18 12:44:13;;;;;;;3.70;2.17;;;21.20;74.10;;;;;;5034377;28;20181;-36
2022/04/18 12:46:41;;;;;;;4.47;2.53;;;21.50;74.60;;;;;;5032175;28;20261;-37
2022/04/18 12:49:10;;;;;;;2.90;2.38;;;21.50;72.00;;;;;;5031959;28;20260;-38
2022/04/18 12:51:39;;;;;;;5.25;3.22;;;21.60;74.00;;;;;;5015127;28;20193;-35
2022/04/18 12:54:26;;;;;;;3.17;2.40;;;21.10;70.50;;;;;;5015594;28;20290;-36
2022/04/18 12:56:53;;;;;;;3.70;2.53;;;21.00;73.60;;;;;;5047013;28;20232;-36
2022/04/18 12:59:27;;;;;;;2.25;2.05;;;21.10;72.90;;;;;;5035335;28;20234;-36
2022/04/18 13:02:04;;;;;;;4.10;2.75;;;21.00;71.80;;;;;;5033961;28;20182;-36
2022/04/18 13:04:29;;;;;;;2.95;2.65;;;21.20;75.00;;;;;;5015167;28;20182;-38
2022/04/18 13:07:05;;;;;;;3.25;2.55;;;21.40;74.70;;;;;;5031410;28;20271;-35
2022/04/18 13:09:31;;;;;;;3.50;2.90;;;21.40;74.80;;;;;;5015212;28;20182;-37
2022/04/18 13:12:01;;;;;;;2.55;2.20;;;20.90;69.70;;;;;;5015125;28;20185;-36
2022/04/18 13:14:27;;;;;;;2.78;2.47;;;21.00;74.20;;;;;;5051089;28;20189;-36
2022/04/18 13:17:10;;;;;;;3.95;2.40;;;21.20;73.00;;;;;;5050086;28;20225;-36
2022/04/18 13:19:38;;;;;;;4.10;2.40;;;21.50;73.30;;;;;;5051478;28;20178;-38
2022/04/18 13:22:05;;;;;;;2.65;2.35;;;21.40;73.60;;;;;;5051390;28;20194;-35
2022/04/18 13:24:31;;;;;;;3.78;2.70;;;21.60;72.40;;;;;;5050422;28;20224;-39
2022/04/18 13:26:56;;;;;;;2.40;2.20;;;21.70;72.00;;;;;;5050236;28;20209;-35
2022/04/18 13:29:22;;;;;;;2.60;2.28;;;21.70;72.40;;;;;;5050634;28;20189;-36
2022/04/18 13:31:51;;;;;;;3.15;2.55;;;22.00;71.30;;;;;;5028161;28;20201;-40
2022/04/18 13:34:17;;;;;;;2.72;2.47;;;22.10;70.90;;;;;;5032377;28;20201;-38
2022/04/18 13:36:46;;;;;;;4.40;2.60;;;22.20;70.40;;;;;;5047999;28;20244;-39
2022/04/18 13:39:13;;;;;;;4.43;3.10;;;21.50;68.10;;;;;;5031980;28;20307;-38
2022/04/18 13:41:40;;;;;;;3.05;2.75;;;21.70;68.10;;;;;;5048520;28;20190;-36